Terminal Aerodrome Forecast
Issued by NWS

Home | Current Version | Previous Version | Graphics & Text | Print | Product List | Glossary On
Versions: 1 2 3 4 5 6 7 8 9 10 11 12 13 14
898
FTUS45 KGGW 280524
TAFSDY
TAF
KSDY 280524Z 2806/2906 02004KT P6SM SCT100
     FM282100 12006KT P6SM VCSH FEW035 SCT090
     FM290000 12006KT P6SM SCT080=

USA.gov is the U.S. government's official web portal to all federal, state and local government web resources and services.